Time;durP1;ratioP1;P1;durP2;ratioP2;P2;SDS_P1;SDS_P2;PMS_P1;PMS_P2;Temp;Humidity;BMP_temperature;BMP_pressure;BME280_temperature;BME280_humidity;BME280_pressure;Samples;Min_cycle;Max_cycle;Signal;HPM_P1;HPM_P2
2022/07/01 00:00:03;;;;;;;1999.90;999.90;;;22.30;99.90;;;;;;5050361;28;20489;-68
2022/07/01 00:02:30;;;;;;;1999.90;999.90;;;22.40;99.90;;;;;;5047645;28;20462;-69
2022/07/01 00:04:56;;;;;;;1999.90;999.90;;;22.50;99.90;;;;;;5054256;28;20515;-68
2022/07/01 00:07:23;;;;;;;1999.90;999.90;;;22.60;99.90;;;;;;5053780;28;20558;-68
2022/07/01 00:09:50;;;;;;;1999.90;999.90;;;22.70;99.90;;;;;;5055229;28;21003;-71
2022/07/01 00:12:16;;;;;;;1999.90;999.90;;;23.00;99.90;;;;;;5051672;28;20918;-70
2022/07/01 00:14:44;;;;;;;1999.90;999.90;;;23.10;99.90;;;;;;5054808;28;21172;-70
2022/07/01 00:17:11;;;;;;;1999.90;999.90;;;23.00;99.90;;;;;;5053646;28;20486;-70
2022/07/01 00:19:38;;;;;;;1999.90;999.90;;;23.00;99.90;;;;;;5055136;28;20504;-71
2022/07/01 00:22:05;;;;;;;1999.90;999.90;;;22.90;99.90;;;;;;5052403;28;20462;-71
2022/07/01 00:24:31;;;;;;;1999.90;999.90;;;22.80;99.90;;;;;;5054439;28;20457;-71
2022/07/01 00:26:58;;;;;;;1999.90;999.90;;;22.70;99.90;;;;;;5053638;28;21279;-71
2022/07/01 00:29:25;;;;;;;1999.90;999.90;;;22.60;99.90;;;;;;5054883;28;20453;-71
2022/07/01 00:31:53;;;;;;;1999.90;999.90;;;22.40;99.90;;;;;;5053624;28;20482;-71
2022/07/01 00:34:20;;;;;;;1999.90;999.90;;;22.40;99.90;;;;;;5054755;28;20942;-71
2022/07/01 00:36:46;;;;;;;1999.90;999.90;;;22.20;99.90;;;;;;5052109;28;20508;-71
2022/07/01 00:39:13;;;;;;;1999.90;999.90;;;22.20;99.90;;;;;;5054296;28;20450;-70
2022/07/01 00:41:39;;;;;;;1999.90;999.90;;;22.10;99.90;;;;;;5052638;28;20450;-70
2022/07/01 00:44:06;;;;;;;1999.90;999.90;;;22.10;99.90;;;;;;5054745;28;20446;-70
2022/07/01 00:46:33;;;;;;;1999.90;999.90;;;22.00;99.90;;;;;;5053195;28;20477;-71
2022/07/01 00:49:02;;;;;;;1999.90;999.90;;;21.90;99.90;;;;;;5054790;28;20466;-71
2022/07/01 00:51:29;;;;;;;1999.90;999.90;;;22.00;99.90;;;;;;5053281;28;20490;-71
2022/07/01 00:53:58;;;;;;;1999.90;999.90;;;21.90;99.90;;;;;;5054522;28;20450;-71
2022/07/01 00:56:24;;;;;;;1999.90;999.90;;;22.00;99.90;;;;;;5051530;28;20524;-72
2022/07/01 00:58:51;;;;;;;1999.90;999.90;;;21.60;99.90;;;;;;5052474;28;20516;-71
2022/07/01 01:01:19;;;;;;;1999.90;999.90;;;20.70;99.90;;;;;;5054233;28;20435;-70
2022/07/01 01:03:46;;;;;;;1999.90;999.90;;;19.70;99.90;;;;;;5053299;28;20474;-69
2022/07/01 01:06:14;;;;;;;1999.90;999.90;;;18.90;99.90;;;;;;5051620;28;20459;-70
2022/07/01 01:08:41;;;;;;;1999.90;999.90;;;18.30;99.90;;;;;;5052895;28;21013;-70
2022/07/01 01:11:08;;;;;;;1999.90;999.90;;;18.00;99.90;;;;;;5052176;28;20534;-70
2022/07/01 01:13:35;;;;;;;1999.90;999.90;;;17.90;99.90;;;;;;5052795;28;20524;-69
2022/07/01 01:16:01;;;;;;;1999.90;999.90;;;17.90;99.90;;;;;;5049558;28;20458;-70
2022/07/01 01:18:28;;;;;;;1999.90;999.90;;;17.90;99.90;;;;;;5052431;28;20543;-69
2022/07/01 01:20:56;;;;;;;1999.90;999.90;;;18.00;99.90;;;;;;5052965;28;20974;-70
2022/07/01 01:23:23;;;;;;;1999.90;999.90;;;18.10;99.90;;;;;;5052872;28;20470;-69
2022/07/01 01:25:49;;;;;;;1999.90;999.90;;;18.30;99.90;;;;;;5051970;28;20505;-69
2022/07/01 01:28:16;;;;;;;1999.90;999.90;;;18.50;99.90;;;;;;5052677;28;20520;-70
2022/07/01 01:30:43;;;;;;;1999.90;999.90;;;18.50;99.90;;;;;;5053940;28;20450;-70
2022/07/01 01:33:11;;;;;;;1999.90;999.90;;;18.60;99.90;;;;;;5054002;28;20489;-70
2022/07/01 01:35:38;;;;;;;1999.90;999.90;;;18.70;99.90;;;;;;5052185;28;20541;-70
2022/07/01 01:38:06;;;;;;;1999.90;999.90;;;19.00;99.90;;;;;;5072477;22;20485;-70
2022/07/01 01:40:32;;;;;;;1999.90;999.90;;;18.60;99.90;;;;;;5079847;28;20508;-69
2022/07/01 01:42:59;;;;;;;1999.90;999.90;;;18.80;99.90;;;;;;5088695;28;20493;-69
2022/07/01 01:45:26;;;;;;;1999.90;999.90;;;18.90;99.90;;;;;;5083504;28;21052;-69
2022/07/01 01:47:53;;;;;;;1999.90;999.90;;;19.10;99.90;;;;;;5090768;28;20489;-69
2022/07/01 01:50:20;;;;;;;1999.90;999.90;;;19.00;99.90;;;;;;5072176;28;20465;-70
2022/07/01 01:52:47;;;;;;;1999.90;999.90;;;19.10;99.90;;;;;;5073379;28;20481;-69
2022/07/01 01:55:15;;;;;;;1999.90;999.90;;;19.10;99.90;;;;;;5069823;28;20491;-67
2022/07/01 01:57:41;;;;;;;1999.90;999.90;;;19.10;99.90;;;;;;5065203;28;20555;-70
2022/07/01 02:00:09;;;;;;;1999.90;999.90;;;19.10;99.90;;;;;;5072008;28;20453;-70
2022/07/01 02:02:36;;;;;;;1999.90;999.90;;;19.30;99.90;;;;;;5070600;28;20515;-69
2022/07/01 02:05:04;;;;;;;1999.90;999.90;;;19.30;99.90;;;;;;5070549;28;20544;-66
2022/07/01 02:07:31;;;;;;;1999.90;999.90;;;19.30;99.90;;;;;;5072420;28;20515;-69
2022/07/01 02:09:57;;;;;;;1999.90;999.90;;;19.40;99.90;;;;;;5070627;28;20844;-69
2022/07/01 02:12:25;;;;;;;1999.90;999.90;;;19.30;99.90;;;;;;5073374;28;20473;-68
2022/07/01 02:14:52;;;;;;;1999.90;999.90;;;19.10;99.90;;;;;;5073170;28;20507;-71
2022/07/01 02:17:18;;;;;;;1999.90;999.90;;;19.00;99.90;;;;;;5071225;28;20519;-70
2022/07/01 02:19:45;;;;;;;1999.90;999.90;;;18.90;99.90;;;;;;5071815;28;20539;-70
2022/07/01 02:22:12;;;;;;;1999.90;999.90;;;18.90;99.90;;;;;;5071506;28;20474;-69
2022/07/01 02:24:38;;;;;;;1999.90;999.90;;;19.00;99.90;;;;;;5071874;28;20450;-68
2022/07/01 02:27:05;;;;;;;1999.90;999.90;;;18.90;99.90;;;;;;5073668;28;20437;-68
2022/07/01 02:29:33;;;;;;;1999.90;999.90;;;18.90;99.90;;;;;;5073047;28;21031;-66
2022/07/01 02:32:00;;;;;;;1999.90;999.90;;;18.90;99.90;;;;;;5073252;28;20890;-70
2022/07/01 02:34:27;;;;;;;1999.90;999.90;;;18.80;99.90;;;;;;5073694;28;20491;-69
2022/07/01 02:36:55;;;;;;;1999.90;999.90;;;18.70;99.90;;;;;;5070955;28;20462;-72
2022/07/01 02:39:22;;;;;;;1999.90;999.90;;;18.70;99.90;;;;;;5071489;28;21004;-69
2022/07/01 02:44:36;;;;;;;1999.90;999.90;;;18.50;99.90;;;;;;5072511;28;20444;-72
2022/07/01 02:47:03;;;;;;;1999.90;999.90;;;18.40;99.90;;;;;;5072929;28;20491;-69
2022/07/01 02:49:29;;;;;;;1999.90;999.90;;;18.40;99.90;;;;;;5070658;28;20485;-68
2022/07/01 02:51:56;;;;;;;1999.90;999.90;;;18.50;99.90;;;;;;5071570;28;20547;-69
2022/07/01 02:54:23;;;;;;;1999.90;999.90;;;18.40;99.90;;;;;;5070642;28;20473;-66
2022/07/01 02:56:49;;;;;;;1999.90;999.90;;;18.40;99.90;;;;;;5072370;28;20939;-69
2022/07/01 02:59:16;;;;;;;1999.90;999.90;;;18.40;99.90;;;;;;5071487;28;20526;-71
2022/07/01 03:01:44;;;;;;;1999.90;999.90;;;18.30;99.90;;;;;;5073061;28;20441;-72
2022/07/01 03:04:11;;;;;;;1999.90;999.90;;;18.30;99.90;;;;;;5069987;28;20453;-70
2022/07/01 03:06:37;;;;;;;1999.90;999.90;;;18.30;99.90;;;;;;5070062;28;20457;-69
2022/07/01 03:09:04;;;;;;;1999.90;999.90;;;18.20;99.90;;;;;;5071221;28;21070;-67
2022/07/01 03:11:31;;;;;;;1999.90;999.90;;;18.20;99.90;;;;;;5071556;28;20495;-70
2022/07/01 03:13:58;;;;;;;1999.90;999.90;;;18.20;99.90;;;;;;5071492;28;20609;-69
2022/07/01 03:16:24;;;;;;;1999.90;999.90;;;18.30;99.90;;;;;;5069716;28;20469;-70
2022/07/01 03:18:52;;;;;;;1999.90;999.90;;;18.30;99.90;;;;;;5069926;28;20538;-69
2022/07/01 03:21:20;;;;;;;1999.90;999.90;;;18.20;99.90;;;;;;5072281;28;20437;-72
2022/07/01 03:23:46;;;;;;;1999.90;999.90;;;18.20;99.90;;;;;;5071095;28;20475;-71
2022/07/01 03:26:14;;;;;;;1999.90;999.90;;;18.10;99.90;;;;;;5071377;28;20461;-69
2022/07/01 03:28:41;;;;;;;1999.90;999.90;;;18.00;99.90;;;;;;5070544;28;20572;-70
2022/07/01 03:31:07;;;;;;;1999.90;999.90;;;18.00;99.90;;;;;;5070837;28;20446;-70
2022/07/01 03:33:34;;;;;;;1999.90;999.90;;;17.90;99.90;;;;;;5069544;28;20906;-69
2022/07/01 03:36:03;;;;;;;1999.90;999.90;;;17.90;99.90;;;;;;5070397;28;20465;-69
2022/07/01 03:38:29;;;;;;;1999.90;999.90;;;18.00;99.90;;;;;;5069992;28;20534;-70
2022/07/01 03:40:56;;;;;;;1999.90;999.90;;;17.80;99.90;;;;;;5071949;28;20434;-70
2022/07/01 03:43:22;;;;;;;1999.90;999.90;;;17.70;99.90;;;;;;5070744;28;20453;-71
2022/07/01 03:45:49;;;;;;;1999.90;999.90;;;17.70;99.90;;;;;;5069531;28;20469;-69
2022/07/01 03:48:16;;;;;;;1999.90;999.90;;;17.60;99.90;;;;;;5071494;28;20465;-70
2022/07/01 03:50:43;;;;;;;1999.90;999.90;;;17.60;99.90;;;;;;5069743;28;20457;-71
2022/07/01 03:55:55;;;;;;;1999.90;999.90;;;17.50;99.90;;;;;;5062432;28;20453;-71
2022/07/01 03:58:22;;;;;;;1999.90;999.90;;;17.40;99.90;;;;;;5072186;28;20465;-70
2022/07/01 04:00:49;;;;;;;1999.90;999.90;;;17.40;99.90;;;;;;5066653;28;20837;-70
2022/07/01 04:03:15;;;;;;;1999.90;999.90;;;17.40;99.90;;;;;;5071709;28;20487;-70
2022/07/01 04:05:42;;;;;;;1999.90;999.90;;;17.40;99.90;;;;;;5071291;28;20512;-69
2022/07/01 04:08:11;;;;;;;1999.90;999.90;;;17.30;99.90;;;;;;5071897;28;20453;-69
2022/07/01 04:10:39;;;;;;;1999.90;999.90;;;17.30;99.90;;;;;;5071055;28;20512;-70
2022/07/01 04:13:06;;;;;;;1999.90;999.90;;;17.30;99.90;;;;;;5071767;28;20481;-71
2022/07/01 04:15:33;;;;;;;1999.90;999.90;;;17.30;99.90;;;;;;5068874;28;20461;-70
2022/07/01 04:18:00;;;;;;;1999.90;999.90;;;17.20;99.90;;;;;;5072052;28;20466;-69
2022/07/01 04:20:27;;;;;;;1999.90;999.90;;;17.20;99.90;;;;;;5069337;28;20855;-69
2022/07/01 04:22:53;;;;;;;1999.90;999.90;;;17.30;99.90;;;;;;5071619;28;20515;-70
2022/07/01 04:25:21;;;;;;;1999.90;999.90;;;17.30;99.90;;;;;;5068155;28;20890;-70
2022/07/01 04:27:47;;;;;;;1999.90;999.90;;;17.30;99.90;;;;;;5070051;28;20204;-70
2022/07/01 04:30:14;;;;;;;1999.90;999.90;;;17.20;99.90;;;;;;5071006;28;21135;-69
2022/07/01 04:32:41;;;;;;;1999.90;999.90;;;17.20;99.90;;;;;;5075137;28;20474;-70
2022/07/01 04:35:11;;;;;;;1999.90;999.90;;;17.30;99.90;;;;;;5071235;28;20548;-69
2022/07/01 04:37:38;;;;;;;1999.90;999.90;;;17.40;99.90;;;;;;5069764;28;20453;-70
2022/07/01 04:40:06;;;;;;;1999.90;999.90;;;17.50;99.90;;;;;;5070750;28;20453;-70
2022/07/01 04:42:34;;;;;;;1999.90;999.90;;;17.50;99.90;;;;;;5069677;28;20523;-69
2022/07/01 04:45:01;;;;;;;1999.90;999.90;;;17.50;99.90;;;;;;5069292;28;20466;-69
2022/07/01 04:47:32;;;;;;;1999.90;999.90;;;17.40;99.90;;;;;;5070510;28;20933;-70
2022/07/01 04:50:01;;;;;;;1999.90;999.90;;;17.40;99.90;;;;;;5070236;28;20465;-70
2022/07/01 04:52:28;;;;;;;1999.90;999.90;;;17.40;99.90;;;;;;5074761;28;20487;-70
2022/07/01 04:54:54;;;;;;;1999.90;999.90;;;17.20;99.90;;;;;;5072993;28;20492;-71
2022/07/01 04:57:21;;;;;;;1999.90;999.90;;;17.20;99.90;;;;;;5072244;28;21011;-70
2022/07/01 04:59:49;;;;;;;1999.90;999.90;;;17.20;99.90;;;;;;5073226;28;20477;-70
2022/07/01 05:02:15;;;;;;;1999.90;999.90;;;17.30;99.90;;;;;;5075510;28;20445;-70
2022/07/01 05:04:42;;;;;;;1999.90;999.90;;;17.20;99.90;;;;;;5073316;28;20472;-69
2022/07/01 05:07:27;;;;;;;1999.90;999.90;;;17.10;99.90;;;;;;5074094;28;20438;-69
2022/07/01 05:09:55;;;;;;;1999.90;999.90;;;17.10;99.90;;;;;;5068677;28;20883;-70
2022/07/01 05:12:21;;;;;;;1999.90;999.90;;;17.10;99.90;;;;;;5072214;28;20481;-70
2022/07/01 05:14:49;;;;;;;1999.90;999.90;;;17.00;99.90;;;;;;5073013;28;20503;-71
2022/07/01 05:17:16;;;;;;;1999.90;999.90;;;17.00;99.90;;;;;;5073513;28;20438;-71
2022/07/01 05:22:27;;;;;;;1999.90;999.90;;;16.80;99.90;;;;;;5071977;28;20432;-70
2022/07/01 05:24:54;;;;;;;1999.90;999.90;;;16.80;99.90;;;;;;5071824;28;21023;-70
2022/07/01 05:27:20;;;;;;;1999.90;999.90;;;16.90;99.90;;;;;;5073103;28;20491;-68
2022/07/01 05:29:48;;;;;;;1999.90;999.90;;;17.10;99.90;;;;;;5073728;28;20469;-70
2022/07/01 05:32:15;;;;;;;1999.90;999.90;;;17.20;99.90;;;;;;5073961;28;20451;-70
2022/07/01 05:34:42;;;;;;;1999.90;999.90;;;17.10;99.90;;;;;;5072131;28;20457;-70
2022/07/01 05:37:09;;;;;;;1999.90;999.90;;;17.20;99.90;;;;;;5071220;28;20820;-69
2022/07/01 05:39:35;;;;;;;1999.90;999.90;;;17.20;99.90;;;;;;5071167;28;20534;-70
2022/07/01 05:42:02;;;;;;;1999.90;999.90;;;17.20;99.90;;;;;;5072603;28;20449;-70
2022/07/01 05:44:29;;;;;;;1999.90;999.90;;;17.20;99.90;;;;;;5071653;28;20518;-70
2022/07/01 05:46:57;;;;;;;1999.90;999.90;;;17.60;99.90;;;;;;5071988;28;21035;-69
2022/07/01 05:49:24;;;;;;;1999.90;999.90;;;18.00;99.90;;;;;;5070797;28;20603;-70
2022/07/01 05:51:50;;;;;;;1999.90;999.90;;;18.30;99.90;;;;;;5070967;28;20465;-70
2022/07/01 05:54:17;;;;;;;1999.90;999.90;;;18.40;99.90;;;;;;5072498;28;20477;-69
2022/07/01 05:56:44;;;;;;;1999.90;999.90;;;18.30;99.90;;;;;;5073084;28;20453;-70
2022/07/01 05:59:11;;;;;;;1999.90;999.90;;;18.10;99.90;;;;;;5072285;28;20527;-70
2022/07/01 06:01:37;;;;;;;1999.90;999.90;;;18.20;99.90;;;;;;5064644;28;20452;-70
2022/07/01 06:04:05;;;;;;;1999.90;999.90;;;18.30;99.90;;;;;;5070198;28;20469;-70
2022/07/01 06:06:32;;;;;;;1999.90;999.90;;;18.30;99.90;;;;;;5071796;28;20530;-71
2022/07/01 06:08:59;;;;;;;1999.90;999.90;;;18.30;99.90;;;;;;5069844;28;20602;-67
2022/07/01 06:11:25;;;;;;;1999.90;999.90;;;18.30;99.90;;;;;;5072676;28;21005;-67
2022/07/01 06:13:52;;;;;;;1999.90;999.90;;;18.20;99.90;;;;;;5071830;28;20492;-68
2022/07/01 06:16:18;;;;;;;1999.90;999.90;;;18.00;99.90;;;;;;5071963;28;20449;-70
2022/07/01 06:18:45;;;;;;;1999.90;999.90;;;18.00;99.90;;;;;;5071626;28;20485;-69
2022/07/01 06:21:14;;;;;;;1999.90;999.90;;;18.00;99.90;;;;;;5070339;28;20961;-69
2022/07/01 06:23:41;;;;;;;1999.90;999.90;;;18.00;99.90;;;;;;5071759;28;20542;-69
2022/07/01 06:26:08;;;;;;;1999.90;999.90;;;18.00;99.90;;;;;;5072611;28;20441;-69
2022/07/01 06:28:35;;;;;;;1999.90;999.90;;;17.90;99.90;;;;;;5070406;28;21066;-70
2022/07/01 06:31:01;;;;;;;1999.90;999.90;;;17.70;99.90;;;;;;5071512;28;20465;-70
2022/07/01 06:33:30;;;;;;;1999.90;999.90;;;18.00;99.90;;;;;;5070666;28;20889;-69
2022/07/01 06:35:57;;;;;;;1999.90;999.90;;;17.70;99.90;;;;;;5072267;28;20444;-70
2022/07/01 06:38:26;;;;;;;1999.90;999.90;;;17.70;99.90;;;;;;5071555;28;20485;-70
2022/07/01 06:43:34;;;;;;;1999.90;999.90;;;17.70;99.90;;;;;;5070328;28;20469;-70
2022/07/01 06:46:01;;;;;;;1999.90;999.90;;;18.00;99.90;;;;;;5071895;28;20487;-68
2022/07/01 06:48:27;;;;;;;1999.90;999.90;;;18.10;99.90;;;;;;5069527;28;20906;-69
2022/07/01 06:50:54;;;;;;;1999.90;999.90;;;18.00;99.90;;;;;;5071551;28;20462;-69
2022/07/01 06:53:21;;;;;;;1999.90;999.90;;;17.80;99.90;;;;;;5071151;28;21022;-70
2022/07/01 06:55:49;;;;;;;1999.90;999.90;;;17.70;99.90;;;;;;5072006;28;20471;-66
2022/07/01 06:58:16;;;;;;;1999.90;999.90;;;17.60;99.90;;;;;;5071033;28;20524;-70
2022/07/01 07:00:42;;;;;;;1999.90;999.90;;;17.50;99.90;;;;;;5070802;28;20453;-70
2022/07/01 07:03:09;;;;;;;1999.90;999.90;;;17.60;99.90;;;;;;5069156;28;20461;-70
2022/07/01 07:05:35;;;;;;;1999.90;999.90;;;17.70;99.90;;;;;;5067405;28;20909;-69
2022/07/01 07:08:03;;;;;;;1999.90;999.90;;;17.70;99.90;;;;;;5064908;28;20477;-71
2022/07/01 07:10:29;;;;;;;1999.90;999.90;;;17.50;99.90;;;;;;5067424;28;20469;-69
2022/07/01 07:12:57;;;;;;;1999.90;999.90;;;17.40;99.90;;;;;;5076939;28;20530;-70
2022/07/01 07:15:24;;;;;;;1999.90;999.90;;;17.40;99.90;;;;;;5068439;28;20461;-70
2022/07/01 07:17:50;;;;;;;1999.90;999.90;;;17.50;99.90;;;;;;5070222;28;20461;-70
2022/07/01 07:20:17;;;;;;;1999.90;999.90;;;17.60;99.90;;;;;;5070515;28;20461;-70
2022/07/01 07:22:44;;;;;;;1999.90;999.90;;;17.50;99.90;;;;;;5069604;28;20461;-70
2022/07/01 07:25:11;;;;;;;1999.90;999.90;;;17.60;99.90;;;;;;5070703;28;20461;-70
2022/07/01 07:27:37;;;;;;;1999.90;999.90;;;17.50;99.90;;;;;;5063811;28;21010;-69
2022/07/01 07:30:06;;;;;;;1999.90;999.90;;;17.40;99.90;;;;;;5070020;28;20457;-69
2022/07/01 07:32:33;;;;;;;1999.90;999.90;;;17.20;99.90;;;;;;5068906;28;20457;-70
2022/07/01 07:34:59;;;;;;;1999.90;999.90;;;17.10;99.90;;;;;;5063032;28;20478;-70
2022/07/01 07:37:27;;;;;;;1999.90;999.90;;;17.10;99.90;;;;;;5070388;28;20510;-70
2022/07/01 07:39:53;;;;;;;1999.90;999.90;;;17.00;99.90;;;;;;5079289;23;20552;-68
2022/07/01 07:42:20;;;;;;;1999.90;999.90;;;16.80;99.90;;;;;;5071051;28;20864;-67
2022/07/01 07:44:46;;;;;;;1999.90;999.90;;;16.60;99.90;;;;;;5071594;28;20441;-68
2022/07/01 07:47:14;;;;;;;1999.90;999.90;;;16.60;99.90;;;;;;5071371;28;20441;-68
2022/07/01 07:49:41;;;;;;;1999.90;999.90;;;16.60;99.90;;;;;;5071389;28;20989;-67
2022/07/01 07:52:08;;;;;;;1999.90;999.90;;;16.60;99.90;;;;;;5071832;28;20441;-67
2022/07/01 07:54:35;;;;;;;1999.90;999.90;;;16.70;99.90;;;;;;5054004;28;20538;-68
2022/07/01 07:57:01;;;;;;;1999.90;999.90;;;16.80;99.90;;;;;;5062591;28;20972;-68
2022/07/01 07:59:28;;;;;;;1999.90;999.90;;;16.70;99.90;;;;;;5071554;28;20461;-68
2022/07/01 08:01:55;;;;;;;1999.90;999.90;;;16.70;99.90;;;;;;5071399;28;20918;-67
2022/07/01 08:04:23;;;;;;;1999.90;999.90;;;16.70;99.90;;;;;;5071498;28;20447;-67
2022/07/01 08:06:50;;;;;;;1999.90;999.90;;;16.70;99.90;;;;;;5071231;28;20445;-67
2022/07/01 08:09:17;;;;;;;1999.90;999.90;;;16.70;99.90;;;;;;5064339;28;20489;-67
2022/07/01 08:11:43;;;;;;;1999.90;999.90;;;16.50;99.90;;;;;;5052762;28;20511;-67
2022/07/01 08:14:10;;;;;;;1999.90;999.90;;;16.50;99.90;;;;;;5067901;28;20564;-69
2022/07/01 08:16:37;;;;;;;1999.90;999.90;;;16.50;99.90;;;;;;5070524;28;20980;-68
2022/07/01 08:19:04;;;;;;;1999.90;999.90;;;16.60;99.90;;;;;;5071455;28;20515;-67
2022/07/01 08:21:32;;;;;;;1999.90;999.90;;;16.60;99.90;;;;;;5052082;28;20470;-67
2022/07/01 08:23:58;;;;;;;1999.90;999.90;;;16.60;99.90;;;;;;5037854;28;20493;-67
2022/07/01 08:26:25;;;;;;;1999.90;999.90;;;16.50;99.90;;;;;;5039694;28;20999;-67
2022/07/01 08:28:52;;;;;;;1999.90;999.90;;;16.50;99.90;;;;;;5049863;28;20854;-67
2022/07/01 08:31:18;;;;;;;1999.90;999.90;;;16.50;99.90;;;;;;5055259;28;20446;-67
2022/07/01 08:33:45;;;;;;;1999.90;999.90;;;16.30;99.90;;;;;;5052615;28;20482;-67
2022/07/01 08:36:13;;;;;;;1999.90;999.90;;;16.30;99.90;;;;;;5054434;28;20873;-67
2022/07/01 08:38:42;;;;;;;1999.90;999.90;;;16.20;99.90;;;;;;5055874;28;20516;-67
2022/07/01 08:41:08;;;;;;;1999.90;999.90;;;16.20;99.90;;;;;;5066057;28;20822;-66
2022/07/01 08:43:35;;;;;;;1999.90;999.90;;;16.20;99.90;;;;;;5056822;28;20520;-67
2022/07/01 08:46:03;;;;;;;1999.90;999.90;;;16.20;99.90;;;;;;5049137;28;20882;-68
2022/07/01 08:48:31;;;;;;;1999.90;999.90;;;16.20;99.90;;;;;;5054527;28;20474;-67
2022/07/01 08:50:57;;;;;;;1999.90;999.90;;;16.20;99.90;;;;;;5050240;28;20462;-68
2022/07/01 08:53:24;;;;;;;1999.90;999.90;;;16.30;99.90;;;;;;5054168;28;20528;-67
2022/07/01 08:58:37;;;;;;;1999.90;999.90;;;16.20;99.90;;;;;;5046091;28;20552;-67
2022/07/01 09:01:14;;;;;;;1999.90;999.90;;;16.10;99.90;;;;;;5050100;28;20454;-67
2022/07/01 09:03:42;;;;;;;1999.90;999.90;;;16.40;99.90;;;;;;5046631;28;20453;-68
2022/07/01 09:06:13;;;;;;;1999.90;999.90;;;16.20;99.90;;;;;;5044395;28;20902;-67
2022/07/01 09:08:40;;;;;;;1999.90;999.90;;;16.40;99.90;;;;;;5044509;28;20481;-67
2022/07/01 09:11:13;;;;;;;1999.90;999.90;;;16.50;99.90;;;;;;5048752;28;20470;-68
2022/07/01 09:13:40;;;;;;;1999.90;999.90;;;16.50;99.90;;;;;;5036991;28;20917;-68
2022/07/01 09:16:12;;;;;;;1999.90;999.90;;;16.60;99.90;;;;;;5051105;28;20466;-68
2022/07/01 09:18:39;;;;;;;1999.90;999.90;;;16.70;99.90;;;;;;5046269;28;20472;-67
2022/07/01 09:21:13;;;;;;;1999.90;999.90;;;16.70;99.90;;;;;;5040495;28;20498;-68
2022/07/01 09:23:40;;;;;;;1999.90;999.90;;;16.90;99.90;;;;;;5046203;28;20462;-69
2022/07/01 09:26:07;;;;;;;1999.90;999.90;;;16.80;99.90;;;;;;5053500;28;20473;-67
2022/07/01 09:28:35;;;;;;;1999.90;999.90;;;17.00;99.90;;;;;;5051798;28;21005;-67
2022/07/01 09:31:01;;;;;;;1999.90;999.90;;;17.00;99.90;;;;;;5053856;28;20454;-68
2022/07/01 09:33:29;;;;;;;1999.90;999.90;;;17.00;99.90;;;;;;5044474;28;20455;-66
2022/07/01 09:35:57;;;;;;;1999.90;999.90;;;17.00;99.90;;;;;;5055117;28;20464;-68
2022/07/01 09:38:25;;;;;;;1999.90;999.90;;;17.00;99.90;;;;;;5046676;28;20512;-67
2022/07/01 09:40:54;;;;;;;1999.90;999.90;;;17.00;99.90;;;;;;5053549;28;20442;-67
2022/07/01 09:43:23;;;;;;;1999.90;999.90;;;17.00;99.90;;;;;;5044732;28;20536;-67
2022/07/01 09:45:56;;;;;;;1999.90;999.90;;;17.10;99.90;;;;;;5047130;28;20545;-68
2022/07/01 09:48:24;;;;;;;1999.90;999.90;;;17.10;99.90;;;;;;5053706;28;20439;-67
2022/07/01 09:50:51;;;;;;;1999.90;999.90;;;17.00;99.90;;;;;;5050342;28;20462;-67
2022/07/01 09:53:18;;;;;;;1999.90;999.90;;;17.00;99.90;;;;;;5036018;28;20489;-68
2022/07/01 09:55:45;;;;;;;1999.90;999.90;;;17.10;99.90;;;;;;5044258;28;20540;-67
2022/07/01 09:58:11;;;;;;;1999.90;999.90;;;17.20;99.90;;;;;;5051097;28;20451;-68
2022/07/01 10:00:39;;;;;;;1999.90;999.90;;;17.30;99.90;;;;;;5053455;28;20798;-69
2022/07/01 10:03:07;;;;;;;1999.90;999.90;;;17.20;99.90;;;;;;5053271;28;20491;-68
2022/07/01 10:05:40;;;;;;;1999.90;999.90;;;17.40;99.90;;;;;;5054432;28;20950;-67
2022/07/01 10:08:29;;;;;;;1999.90;999.90;;;17.40;99.90;;;;;;5044575;28;20969;-65
2022/07/01 10:11:12;;;;;;;1999.90;999.90;;;17.40;99.90;;;;;;5041751;28;20463;-68
2022/07/01 10:13:41;;;;;;;1999.90;999.90;;;17.40;99.90;;;;;;5041720;28;20504;-67
2022/07/01 10:16:09;;;;;;;1999.90;999.90;;;17.40;99.90;;;;;;5036533;28;20567;-67
2022/07/01 10:18:37;;;;;;;1999.90;999.90;;;17.50;99.90;;;;;;5044920;28;20478;-67
2022/07/01 10:21:05;;;;;;;1999.90;999.90;;;17.40;99.90;;;;;;5051783;28;20458;-67
2022/07/01 10:23:39;;;;;;;1999.90;999.90;;;17.30;99.90;;;;;;5050771;28;20484;-67
2022/07/01 10:26:07;;;;;;;1999.90;999.90;;;17.20;99.90;;;;;;5052303;28;20438;-68
2022/07/01 10:28:43;;;;;;;1999.90;999.90;;;17.20;99.90;;;;;;5046955;28;21176;-67
2022/07/01 10:31:15;;;;;;;1999.90;999.90;;;17.20;99.90;;;;;;5048711;28;20449;-67
2022/07/01 10:33:46;;;;;;;1999.90;999.90;;;17.10;99.90;;;;;;5041679;28;20557;-67
2022/07/01 10:36:18;;;;;;;1999.90;999.90;;;17.00;99.90;;;;;;5048860;28;20473;-67
2022/07/01 10:39:13;;;;;;;1999.90;999.90;;;16.90;99.90;;;;;;5043825;28;20898;-69
2022/07/01 10:41:41;;;;;;;1999.90;999.90;;;16.80;99.90;;;;;;5041867;28;20481;-67
2022/07/01 10:44:10;;;;;;;1999.90;999.90;;;16.90;99.90;;;;;;5060214;28;20438;-68
2022/07/01 10:46:46;;;;;;;1999.90;999.90;;;16.90;99.90;;;;;;5055174;28;21030;-68
2022/07/01 10:49:16;;;;;;;1999.90;999.90;;;16.90;99.90;;;;;;5043091;28;20560;-70
2022/07/01 10:51:46;;;;;;;1999.90;999.90;;;17.00;99.90;;;;;;5037774;28;21075;-69
2022/07/01 10:54:13;;;;;;;1999.90;999.90;;;16.90;99.90;;;;;;5042484;28;20493;-69
2022/07/01 10:56:41;;;;;;;1999.90;999.90;;;16.80;99.90;;;;;;5043687;28;20511;-68
2022/07/01 10:59:08;;;;;;;1999.90;999.90;;;17.00;99.90;;;;;;5036422;28;20486;-68
2022/07/01 11:01:37;;;;;;;1999.90;999.90;;;17.00;99.90;;;;;;5048246;28;20508;-68
2022/07/01 11:04:03;;;;;;;1999.90;999.90;;;16.90;99.90;;;;;;5047966;28;20532;-69
2022/07/01 11:06:36;;;;;;;1999.90;999.90;;;16.90;99.90;;;;;;5044354;28;20505;-69
2022/07/01 11:09:02;;;;;;;1999.90;999.90;;;16.90;99.90;;;;;;5052297;28;20502;-70
2022/07/01 11:11:30;;;;;;;1999.90;999.90;;;17.10;99.90;;;;;;5046033;28;20474;-68
2022/07/01 11:13:57;;;;;;;1999.90;999.90;;;17.20;99.90;;;;;;5047153;28;20527;-68
2022/07/01 11:16:24;;;;;;;1999.90;999.90;;;17.30;99.90;;;;;;5045417;28;20513;-69
2022/07/01 11:18:53;;;;;;;1999.90;999.90;;;17.40;99.90;;;;;;5039901;28;20488;-68
2022/07/01 11:21:20;;;;;;;1999.90;999.90;;;17.40;99.90;;;;;;5049740;28;20474;-70
2022/07/01 11:23:54;;;;;;;1999.90;999.90;;;17.60;99.90;;;;;;5047343;28;20467;-69
2022/07/01 11:26:25;;;;;;;1999.90;999.90;;;17.70;99.90;;;;;;5055411;28;20511;-67
2022/07/01 11:28:51;;;;;;;1999.90;999.90;;;17.80;99.90;;;;;;5051614;28;20466;-67
2022/07/01 11:31:28;;;;;;;1999.90;999.90;;;17.90;99.90;;;;;;5049690;28;20462;-67
2022/07/01 11:33:55;;;;;;;1999.90;999.90;;;17.70;99.90;;;;;;5052113;28;20438;-68
2022/07/01 11:39:23;;;;;;;1999.90;999.90;;;17.80;99.90;;;;;;5048649;28;20571;-67
2022/07/01 11:41:54;;;;;;;1999.90;999.90;;;17.70;99.90;;;;;;5048688;28;20473;-66
2022/07/01 11:44:29;;;;;;;1999.90;999.90;;;17.70;99.90;;;;;;5044181;28;20549;-67
2022/07/01 11:46:56;;;;;;;1999.90;999.90;;;17.50;99.90;;;;;;5042729;28;20889;-68
2022/07/01 11:49:23;;;;;;;1999.90;999.90;;;17.50;99.90;;;;;;5044991;28;20486;-67
2022/07/01 11:51:55;;;;;;;1999.90;999.90;;;17.30;99.90;;;;;;5049145;28;21268;-68
2022/07/01 11:54:24;;;;;;;1999.90;999.90;;;17.20;99.90;;;;;;5051474;28;20459;-68
2022/07/01 11:56:50;;;;;;;1999.90;999.90;;;17.00;99.90;;;;;;5045828;28;20470;-68
2022/07/01 11:59:17;;;;;;;1999.90;999.90;;;16.90;99.90;;;;;;5052433;28;20521;-69
2022/07/01 12:01:53;;;;;;;1999.90;999.90;;;16.90;99.90;;;;;;5055885;28;20442;-69
2022/07/01 12:04:19;;;;;;;1999.90;999.90;;;16.90;99.90;;;;;;5055196;28;20450;-69
2022/07/01 12:06:47;;;;;;;1999.90;999.90;;;17.10;99.90;;;;;;5051054;28;20471;-69
2022/07/01 12:09:15;;;;;;;1999.90;999.90;;;17.20;99.90;;;;;;5060983;28;20863;-69
2022/07/01 12:11:47;;;;;;;1999.90;999.90;;;17.20;99.90;;;;;;5069195;28;20467;-69
2022/07/01 12:14:20;;;;;;;1999.90;999.90;;;17.30;99.90;;;;;;5051128;28;20446;-69
2022/07/01 12:16:47;;;;;;;1999.90;999.90;;;17.50;99.90;;;;;;5042166;28;20944;-67